Golden Pond, Kentucky
Current Conditions -  °F | °C
As of 10:58 PM on Wednesday 22 Oct 2014 (Local Time) from KHOP Reporting Station
Haze Haze  
Wind Chill: 44°   Ceiling: Unl
Heat Index: 46°   Visibility: 6mi
Dew Point: 42°   Wind: 5mph
Humidity: 87%   Direction: 30°NNE
Pressure: 30.22"   Gusts: NA
Location:  36.8031°N, 87.8159°W
Report Text: KHOP 230358Z AUTO 03004KT 6SM BR CLR 08/06 A3022 RMK AO2 SLP236 T00780058
Loading
Personal Weather Stations






























Interactive Weather Map
Tropical Storm Tracking
New forecast layout! Learn more

10-Day Weather Forecast

Advertisements
Track Severe Weather on mobile